createdAt,value
2018-05-11T00:00:11.136Z,96.08
2018-05-11T00:01:11.241Z,95.98
2018-05-11T00:02:10.970Z,96.37
2018-05-11T00:03:11.238Z,95.79
2018-05-11T00:04:11.229Z,95.7
2018-05-11T00:05:11.113Z,95.41
2018-05-11T00:06:10.969Z,95.41
2018-05-11T00:07:10.967Z,95.51
2018-05-11T00:08:11.231Z,95.51
2018-05-11T00:09:11.229Z,95.61
2018-05-11T00:10:11.148Z,95.61
2018-05-11T00:11:10.958Z,95.51
2018-05-11T00:12:10.954Z,95.89
2018-05-11T00:13:10.950Z,95.41
2018-05-11T00:14:11.207Z,95.79
2018-05-11T00:15:11.150Z,95.79
2018-05-11T00:16:11.224Z,95.98
2018-05-11T00:17:11.205Z,95.79
2018-05-11T00:18:11.204Z,96.37
2018-05-11T00:19:10.944Z,95.98
2018-05-11T00:20:11.365Z,96.56
2018-05-11T00:21:10.947Z,97.13
2018-05-11T00:22:10.938Z,96.8
2018-05-11T00:23:11.194Z,96.8
2018-05-11T00:24:11.199Z,96.98
2018-05-11T00:25:11.024Z,97.47
2018-05-11T00:26:11.194Z,97.37
2018-05-11T00:27:10.939Z,98.13
2018-05-11T00:28:11.275Z,98.42
2018-05-11T00:29:11.178Z,98.32
2018-05-11T00:30:10.965Z,98.52
2018-05-11T00:31:11.192Z,98.52
2018-05-11T00:32:10.918Z,98.23
2018-05-11T00:33:11.176Z,97.66
2018-05-11T00:34:11.174Z,98.8
2018-05-11T00:35:11.234Z,98.42
2018-05-11T00:36:11.165Z,98.32
2018-05-11T00:37:11.169Z,98.8
2018-05-11T00:38:11.161Z,98.71
2018-05-11T00:39:10.907Z,98.71
2018-05-11T00:40:11.038Z,98.66
2018-05-11T00:41:10.904Z,99.18
2018-05-11T00:42:11.155Z,98.66
2018-05-11T00:43:11.156Z,98.85
2018-05-11T00:44:11.148Z,99.66
2018-05-11T00:45:11.427Z,99.61
2018-05-11T00:46:11.146Z,99.42
2018-05-11T00:47:10.884Z,99.61
2018-05-11T00:48:10.886Z,99.61
2018-05-11T00:49:11.152Z,99.32
2018-05-11T00:50:11.503Z,99.71
2018-05-11T00:51:11.428Z,99.8
2018-05-11T00:52:11.144Z,99.42
2018-05-11T00:53:11.157Z,99.61
2018-05-11T00:54:10.890Z,99.99
2018-05-11T00:55:11.159Z,99.99
2018-05-11T00:56:11.126Z,99.99
2018-05-11T00:57:10.861Z,99.99
2018-05-11T00:58:10.864Z,99.99
2018-05-11T00:59:10.860Z,99.99
2018-05-11T01:00:10.933Z,99.99
2018-05-11T01:01:11.121Z,99.99
2018-05-11T01:02:11.121Z,99.99
2018-05-11T01:03:11.108Z,99.99
2018-05-11T01:04:11.172Z,99.99
2018-05-11T01:05:11.171Z,99.99
2018-05-11T01:06:10.840Z,99.99
2018-05-11T01:07:11.102Z,99.99
2018-05-11T01:08:11.097Z,99.99
2018-05-11T01:09:11.097Z,99.99
2018-05-11T01:10:11.309Z,99.99
2018-05-11T01:11:11.112Z,99.99
2018-05-11T01:12:11.100Z,99.99
2018-05-11T01:13:11.101Z,99.99
2018-05-11T01:14:10.821Z,99.99
2018-05-11T01:15:11.018Z,99.99
2018-05-11T01:16:10.817Z,99.99
2018-05-11T01:17:11.105Z,99.99
2018-05-11T01:18:10.813Z,99.99
2018-05-11T01:19:11.078Z,99.99
2018-05-11T01:20:11.010Z,99.99
2018-05-11T01:21:11.061Z,99.99
2018-05-11T01:22:11.077Z,99.99
2018-05-11T01:23:11.075Z,99.99
2018-05-11T01:24:11.054Z,99.99
2018-05-11T01:25:11.294Z,99.99
2018-05-11T01:26:10.789Z,99.99
2018-05-11T01:27:10.786Z,99.99
2018-05-11T01:28:11.061Z,99.99
2018-05-11T01:29:11.048Z,99.99
2018-05-11T01:30:10.826Z,99.99
2018-05-11T01:31:11.055Z,99.99
2018-05-11T01:32:10.773Z,99.99
2018-05-11T01:33:11.033Z,99.99
2018-05-11T01:34:11.037Z,99.99
2018-05-11T01:35:10.988Z,99.99
2018-05-11T01:36:11.029Z,99.99
2018-05-11T01:37:11.023Z,99.99
2018-05-11T01:38:10.777Z,99.99
2018-05-11T01:39:10.765Z,99.99
2018-05-11T01:40:11.211Z,99.99
2018-05-11T01:41:11.031Z,99.99
2018-05-11T01:42:11.007Z,99.99
2018-05-11T01:43:11.005Z,99.99
2018-05-11T01:44:11.011Z,99.99
2018-05-11T01:45:10.864Z,99.99
2018-05-11T01:46:10.997Z,99.99
2018-05-11T01:47:11.011Z,99.99
2018-05-11T01:48:10.998Z,99.99
2018-05-11T01:49:11.005Z,99.99
2018-05-11T01:50:10.881Z,99.99
2018-05-11T01:51:10.986Z,99.99
2018-05-11T01:52:10.987Z,99.99
2018-05-11T01:53:10.813Z,99.99
2018-05-11T01:54:10.969Z,99.99
2018-05-11T01:55:11.379Z,99.99
2018-05-11T01:56:10.971Z,99.99
2018-05-11T01:57:10.745Z,99.99
2018-05-11T01:58:10.973Z,99.99
2018-05-11T01:59:10.722Z,99.99
2018-05-11T02:00:11.157Z,99.99
2018-05-11T02:01:10.961Z,99.99
2018-05-11T02:02:10.965Z,99.99
2018-05-11T02:03:10.689Z,99.99
2018-05-11T02:04:10.974Z,99.99
2018-05-11T02:05:10.943Z,99.99
2018-05-11T02:06:10.944Z,99.99
2018-05-11T02:07:10.937Z,99.99
2018-05-11T02:08:10.677Z,99.99
2018-05-11T02:09:10.680Z,99.99
2018-05-11T02:10:11.141Z,99.99
2018-05-11T02:11:10.924Z,99.99
2018-05-11T02:12:10.667Z,99.99
2018-05-11T02:13:10.943Z,99.99
2018-05-11T02:14:10.923Z,99.99
2018-05-11T02:15:10.782Z,99.99
2018-05-11T02:16:10.924Z,99.99
2018-05-11T02:17:10.672Z,99.99
2018-05-11T02:18:10.651Z,99.99
2018-05-11T02:19:10.656Z,99.99
2018-05-11T02:20:10.917Z,99.99
2018-05-11T02:21:10.900Z,99.99
2018-05-11T02:22:10.903Z,99.99
2018-05-11T02:23:10.634Z,99.99
2018-05-11T02:24:10.890Z,99.99
2018-05-11T02:25:10.906Z,99.99
2018-05-11T02:26:10.888Z,99.99
2018-05-11T02:27:10.626Z,99.99
2018-05-11T02:28:10.648Z,99.99
2018-05-11T02:29:10.644Z,99.99
2018-05-11T02:30:11.193Z,99.99
2018-05-11T02:31:10.630Z,99.99
2018-05-11T02:32:10.875Z,99.99
2018-05-11T02:33:10.621Z,99.99
2018-05-11T02:34:10.859Z,99.99
2018-05-11T02:35:11.108Z,99.99
2018-05-11T02:36:10.963Z,99.99
2018-05-11T02:37:10.851Z,99.99
2018-05-11T02:38:10.589Z,99.99
2018-05-11T02:39:10.593Z,99.99
2018-05-11T02:40:10.940Z,99.99
2018-05-11T02:41:10.840Z,99.99
2018-05-11T02:42:10.837Z,99.99
2018-05-11T02:43:10.586Z,99.99
2018-05-11T02:44:10.844Z,99.99
2018-05-11T02:45:10.701Z,99.99
2018-05-11T02:46:10.841Z,99.99
2018-05-11T02:47:10.578Z,99.99
2018-05-11T02:48:10.813Z,99.99
2018-05-11T02:49:10.814Z,99.99
2018-05-11T02:50:11.005Z,99.99
2018-05-11T02:51:10.813Z,99.99
2018-05-11T02:52:10.811Z,99.99
2018-05-11T02:53:10.827Z,99.99
2018-05-11T02:54:10.800Z,99.99
2018-05-11T02:55:11.511Z,99.99
2018-05-11T02:56:10.832Z,99.99
2018-05-11T02:57:10.799Z,99.99
2018-05-11T02:58:10.795Z,99.99
2018-05-11T02:59:10.787Z,99.99
2018-05-11T03:00:11.964Z,99.99
2018-05-11T03:01:10.779Z,99.99
2018-05-11T03:02:10.783Z,99.99
2018-05-11T03:03:10.781Z,99.99
2018-05-11T03:04:10.778Z,99.99
2018-05-11T03:05:10.566Z,99.99
2018-05-11T03:06:10.764Z,99.99
2018-05-11T03:07:10.760Z,99.99
2018-05-11T03:08:10.768Z,99.99
2018-05-11T03:09:10.766Z,99.99
2018-05-11T03:10:10.805Z,99.99
2018-05-11T03:11:10.757Z,99.99
2018-05-11T03:12:10.741Z,99.99
2018-05-11T03:13:10.747Z,99.99
2018-05-11T03:14:10.733Z,99.99
2018-05-11T03:15:10.786Z,99.99
2018-05-11T03:16:10.726Z,99.99
2018-05-11T03:17:10.460Z,99.99
2018-05-11T03:18:10.725Z,99.99
2018-05-11T03:19:10.465Z,99.99
2018-05-11T03:20:10.839Z,99.99
2018-05-11T03:21:10.706Z,99.99
2018-05-11T03:22:10.708Z,99.99
2018-05-11T03:23:10.700Z,99.99
2018-05-11T03:24:10.716Z,99.99
2018-05-11T03:25:10.808Z,99.99
2018-05-11T03:26:10.425Z,99.99
2018-05-11T03:27:10.690Z,99.99
2018-05-11T03:28:10.687Z,99.99
2018-05-11T03:29:10.691Z,99.99
2018-05-11T03:30:10.503Z,99.99
2018-05-11T03:31:10.682Z,99.99
2018-05-11T03:32:10.697Z,99.99
2018-05-11T03:33:10.669Z,99.99
2018-05-11T03:34:10.665Z,99.99
2018-05-11T03:35:10.834Z,99.99
2018-05-11T03:36:10.391Z,99.99
2018-05-11T03:37:10.395Z,99.99
2018-05-11T03:38:10.385Z,99.99
2018-05-11T03:39:10.382Z,99.99
2018-05-11T03:40:10.790Z,99.99
2018-05-11T03:41:10.658Z,99.99
2018-05-11T03:42:10.381Z,99.99
2018-05-11T03:43:10.380Z,99.99
2018-05-11T03:44:10.636Z,99.99
2018-05-11T03:45:10.780Z,99.99
2018-05-11T03:46:10.628Z,99.99
2018-05-11T03:47:10.354Z,99.99
2018-05-11T03:48:10.626Z,99.99
2018-05-11T03:49:10.784Z,99.99
2018-05-11T03:50:10.738Z,99.99
2018-05-11T03:51:10.634Z,99.99
2018-05-11T03:52:10.365Z,99.99
2018-05-11T03:53:10.620Z,99.99
2018-05-11T03:54:10.605Z,99.99
2018-05-11T03:55:10.496Z,99.99
2018-05-11T03:56:10.622Z,99.99
2018-05-11T03:57:10.332Z,99.99
2018-05-11T03:58:10.580Z,99.99
2018-05-11T03:59:10.322Z,99.99
2018-05-11T04:00:10.872Z,99.99
2018-05-11T04:01:10.572Z,99.99
2018-05-11T04:02:10.563Z,99.99
2018-05-11T04:03:10.308Z,99.99
2018-05-11T04:04:10.302Z,99.99
2018-05-11T04:05:10.607Z,99.99
2018-05-11T04:06:10.297Z,99.99
2018-05-11T04:07:10.304Z,99.99
2018-05-11T04:08:10.299Z,99.99
2018-05-11T04:09:10.547Z,99.99
2018-05-11T04:10:10.469Z,99.99
2018-05-11T04:11:10.538Z,99.99
2018-05-11T04:12:10.537Z,99.99
2018-05-11T04:13:10.349Z,99.99
2018-05-11T04:14:10.270Z,99.99
2018-05-11T04:15:10.402Z,99.99
2018-05-11T04:16:10.531Z,99.99
2018-05-11T04:17:10.523Z,99.99
2018-05-11T04:18:10.532Z,99.99
2018-05-11T04:19:10.256Z,99.99
2018-05-11T04:20:10.743Z,99.99
2018-05-11T04:21:10.510Z,99.99
2018-05-11T04:22:10.512Z,99.99
2018-05-11T04:23:10.263Z,99.99
2018-05-11T04:24:10.242Z,99.99
2018-05-11T04:25:10.730Z,99.99
2018-05-11T04:26:10.234Z,99.99
2018-05-11T04:27:10.231Z,99.99
2018-05-11T04:28:10.529Z,99.99
2018-05-11T04:29:10.484Z,99.99
2018-05-11T04:30:10.440Z,99.99
2018-05-11T04:31:10.226Z,99.99
2018-05-11T04:32:10.219Z,99.99
2018-05-11T04:33:10.490Z,99.99
2018-05-11T04:34:10.235Z,99.8
2018-05-11T04:35:10.626Z,99.42
2018-05-11T04:36:10.214Z,99.57
2018-05-11T04:37:10.587Z,98.85
2018-05-11T04:38:10.485Z,97.94
2018-05-11T04:39:10.464Z,97.08
2018-05-11T04:40:10.638Z,96.7
2018-05-11T04:41:10.202Z,96.03
2018-05-11T04:42:10.459Z,96.8
2018-05-11T04:43:10.478Z,96.03
2018-05-11T04:44:10.194Z,96.22
2018-05-11T04:45:10.693Z,95.27
2018-05-11T04:46:10.451Z,95.32
2018-05-11T04:47:10.199Z,95.41
2018-05-11T04:48:10.453Z,94.46
2018-05-11T04:49:10.459Z,94.65
2018-05-11T04:50:10.373Z,94.55
2018-05-11T04:51:10.450Z,94.74
2018-05-11T04:52:10.447Z,94.46
2018-05-11T04:53:10.468Z,93.98
2018-05-11T04:54:10.191Z,93.21
2018-05-11T04:55:10.225Z,92.88
2018-05-11T04:56:10.440Z,92.4
2018-05-11T04:57:10.434Z,92.11
2018-05-11T04:58:10.193Z,90.59
2018-05-11T04:59:10.174Z,90.11
2018-05-11T05:00:10.523Z,89.58
2018-05-11T05:01:12.056Z,88.81
2018-05-11T05:02:10.427Z,87.38
2018-05-11T05:03:10.474Z,87.76
2018-05-11T05:04:10.428Z,86.8
2018-05-11T05:05:10.536Z,86.61
2018-05-11T05:06:10.429Z,87.09
2018-05-11T05:07:10.437Z,87.29
2018-05-11T05:08:10.185Z,86.47
2018-05-11T05:09:10.181Z,85.13
2018-05-11T05:10:10.251Z,85.13
2018-05-11T05:11:10.437Z,85.61
2018-05-11T05:12:10.478Z,85.51
2018-05-11T05:13:10.185Z,86.18
2018-05-11T05:14:10.185Z,86.28
2018-05-11T05:15:10.266Z,86.47
2018-05-11T05:16:10.438Z,86.47
2018-05-11T05:17:10.446Z,86.18
2018-05-11T05:18:10.450Z,86.37
2018-05-11T05:19:10.642Z,85.51
2018-05-11T05:20:10.282Z,85.61
2018-05-11T05:21:10.178Z,85.22
2018-05-11T05:22:10.449Z,85.8
2018-05-11T05:23:10.183Z,85.51
2018-05-11T05:24:10.453Z,85.89
2018-05-11T05:25:10.450Z,84.94
2018-05-11T05:26:10.181Z,82.87
2018-05-11T05:27:10.189Z,81.73
2018-05-11T05:28:10.451Z,80.14
2018-05-11T05:29:10.182Z,80.33
2018-05-11T05:30:10.539Z,81.2
2018-05-11T05:31:10.188Z,81.67
2018-05-11T05:32:10.450Z,79.7
2018-05-11T05:33:10.611Z,77.88
2018-05-11T05:34:10.189Z,75.71
2018-05-11T05:35:10.246Z,72.01
2018-05-11T05:36:10.450Z,71.66
2018-05-11T05:37:10.448Z,70.61
2018-05-11T05:38:10.473Z,69.3
2018-05-11T05:39:10.612Z,69.78
2018-05-11T05:40:10.479Z,68.05
2018-05-11T05:41:10.463Z,68.24
2018-05-11T05:42:10.455Z,67.19
2018-05-11T05:43:10.220Z,66.36
2018-05-11T05:44:10.200Z,65.81
2018-05-11T05:45:10.225Z,64.76
2018-05-11T05:46:10.509Z,63.79
2018-05-11T05:47:10.502Z,62.96
2018-05-11T05:48:10.483Z,62.29
2018-05-11T05:49:10.495Z,60.97
2018-05-11T05:50:10.234Z,60.78
2018-05-11T05:51:10.493Z,61.36
2018-05-11T05:52:10.334Z,62.03
2018-05-11T05:53:10.505Z,61.36
2018-05-11T05:54:10.494Z,61.16
2018-05-11T05:55:10.531Z,60.42
2018-05-11T05:56:10.503Z,60.81
2018-05-11T05:57:10.506Z,61.07
2018-05-11T05:58:10.525Z,61.36
2018-05-11T05:59:10.261Z,61.07
2018-05-11T06:00:10.283Z,61.36
2018-05-11T06:01:10.273Z,59.85
2018-05-11T06:02:10.540Z,58.89
2018-05-11T06:03:10.543Z,58.15
2018-05-11T06:04:10.549Z,56.73
2018-05-11T06:05:10.668Z,58.44
2018-05-11T06:06:10.555Z,58.98
2018-05-11T06:07:10.558Z,59.49
2018-05-11T06:08:10.725Z,58.44
2018-05-11T06:09:10.571Z,56.82
2018-05-11T06:10:10.340Z,55.67
2018-05-11T06:11:10.588Z,56.85
2018-05-11T06:12:10.590Z,56.63
2018-05-11T06:13:10.590Z,55.7
2018-05-11T06:23:05.428Z,60.39
2018-05-11T06:24:05.635Z,61.23
2018-05-11T06:25:05.381Z,61.23
2018-05-11T06:26:05.642Z,61.23
2018-05-11T06:27:05.646Z,60.94
2018-05-11T06:28:05.668Z,60.3
2018-05-11T06:29:05.404Z,60.49
2018-05-11T06:30:05.424Z,60.97
2018-05-11T06:31:05.661Z,60.3
2018-05-11T06:32:05.659Z,59.85
2018-05-11T06:33:05.400Z,59.75
2018-05-11T06:34:05.672Z,58.79
2018-05-11T06:35:05.673Z,57.86
2018-05-11T06:36:05.424Z,58.05
2018-05-11T06:37:05.429Z,57.18
2018-05-11T06:38:05.426Z,56.05
2018-05-11T06:39:05.425Z,55.29
2018-05-11T06:40:05.434Z,54.54
2018-05-11T06:41:05.700Z,54.64
2018-05-11T06:42:05.694Z,53.67
2018-05-11T06:43:05.722Z,53.41
2018-05-11T06:44:05.707Z,52.73
2018-05-11T06:45:05.717Z,52.25
2018-05-11T06:46:05.786Z,51.8
2018-05-11T06:47:05.724Z,51.8
2018-05-11T06:48:05.464Z,51.89
2018-05-11T06:49:05.482Z,51.8
2018-05-11T06:50:05.737Z,51.03
2018-05-11T06:51:05.749Z,50.09
2018-05-11T06:52:05.747Z,49.55
2018-05-11T06:53:05.816Z,48.39
2018-05-11T06:54:05.499Z,47.65
2018-05-11T06:55:05.771Z,46.97
2018-05-11T06:56:05.783Z,47.07
2018-05-11T06:57:05.526Z,46.39
2018-05-11T06:58:05.779Z,46.03
2018-05-11T06:59:05.527Z,45.37
2018-05-11T07:00:05.542Z,44.7
2018-05-11T07:01:05.803Z,44.21
2018-05-11T07:02:05.539Z,44.6
2018-05-11T07:03:05.806Z,45.18
2018-05-11T07:04:05.564Z,46.12
2018-05-11T07:05:05.833Z,47.63
2018-05-11T07:06:05.574Z,48.66
2018-05-11T07:07:05.574Z,50.09
2018-05-11T07:08:05.681Z,50.64
2018-05-11T07:09:05.599Z,50.93
2018-05-11T07:10:05.600Z,50.84
2018-05-11T07:11:05.601Z,50.64
2018-05-11T07:12:05.880Z,49.51
2018-05-11T07:13:05.888Z,47.99
2018-05-11T07:14:05.617Z,46.85
2018-05-11T07:15:05.628Z,46.95
2018-05-11T07:16:05.646Z,47.81
2018-05-11T07:17:05.902Z,48.47
2018-05-11T07:18:05.639Z,49.34
2018-05-11T07:19:05.647Z,50.96
2018-05-11T07:20:05.917Z,51.63
2018-05-11T07:21:05.920Z,51.32
2018-05-11T07:22:05.974Z,50.67
2018-05-11T07:23:05.724Z,49.9
2018-05-11T07:24:05.684Z,49.44
2018-05-11T07:25:05.683Z,48.95
2018-05-11T07:26:05.955Z,49.51
2018-05-11T07:27:05.692Z,49.02
2018-05-11T07:28:05.960Z,49.44
2018-05-11T07:29:05.718Z,50.57
2018-05-11T07:30:05.974Z,50.28
2018-05-11T07:31:05.988Z,49.7
2018-05-11T07:32:05.726Z,48.11
2018-05-11T07:33:05.727Z,46.2
2018-05-11T07:34:06.013Z,46.49
2018-05-11T07:35:05.739Z,47.81
2018-05-11T07:36:06.014Z,48.11
2018-05-11T07:37:05.990Z,50.31
2018-05-11T07:38:06.268Z,51.03
2018-05-11T07:39:05.759Z,51.89
2018-05-11T07:40:06.029Z,51.39
2018-05-11T07:41:05.772Z,50.52
2018-05-11T07:42:06.076Z,50.81
2018-05-11T07:43:06.158Z,51.58
2018-05-11T07:44:05.833Z,52.06
2018-05-11T07:45:06.075Z,53.29
2018-05-11T07:46:06.062Z,52.71
2018-05-11T07:47:06.078Z,52.33
2018-05-11T07:48:05.811Z,53.58
2018-05-11T07:49:06.095Z,53.19
2018-05-11T07:50:06.091Z,51.46
2018-05-11T07:51:05.829Z,52.06
2018-05-11T07:52:05.833Z,51.94
2018-05-11T07:53:06.147Z,52.61
2018-05-11T07:54:05.850Z,52.71
2018-05-11T07:55:05.849Z,53.84
2018-05-11T07:56:05.853Z,57.18
2018-05-11T07:57:06.123Z,58.02
2018-05-11T07:58:06.122Z,58.95
2018-05-11T07:59:06.136Z,60.39
2018-05-11T08:00:05.876Z,58.76
2018-05-11T08:01:06.148Z,57.03
2018-05-11T08:02:05.883Z,56
2018-05-11T08:03:06.165Z,55.65
2018-05-11T08:04:06.220Z,56.22
2018-05-11T08:05:06.164Z,57.06
2018-05-11T08:06:06.169Z,57.15
2018-05-11T08:07:06.179Z,57.83
2018-05-11T08:08:08.019Z,57.73
2018-05-11T08:09:06.180Z,56.12
2018-05-11T08:10:05.927Z,57.18
2018-05-11T08:11:06.193Z,57.95
2018-05-11T08:12:06.192Z,56.8
2018-05-11T08:13:06.199Z,57.25
2018-05-11T08:14:06.360Z,58.02
2018-05-11T08:15:06.215Z,57.83
2018-05-11T08:16:05.973Z,57.64
2018-05-11T08:17:05.952Z,57.09
2018-05-11T08:18:05.960Z,57.09
2018-05-11T08:19:05.968Z,59.01
2018-05-11T08:20:06.229Z,58.98
2018-05-11T08:21:05.975Z,58.12
2018-05-11T08:22:05.975Z,57.57
2018-05-11T08:23:06.249Z,55.19
2018-05-11T08:24:06.248Z,51.87
2018-05-11T08:25:06.263Z,50.86
2018-05-11T08:26:06.255Z,51.82
2018-05-11T08:27:06.263Z,49.92
2018-05-11T08:28:06.261Z,50.76
2018-05-11T08:29:06.267Z,52.67
2018-05-11T08:30:06.283Z,52.83
2018-05-11T08:31:06.028Z,54.74
2018-05-11T08:32:06.026Z,56.7
2018-05-11T08:33:06.295Z,60.04
2018-05-11T08:34:06.297Z,61.07
2018-05-11T08:35:06.297Z,60.66
2018-05-11T08:36:06.327Z,60.85
2018-05-11T08:37:06.668Z,61.97
2018-05-11T08:38:06.318Z,61.49
2018-05-11T08:39:06.326Z,60.56
2018-05-11T08:40:06.051Z,60.94
2018-05-11T08:41:06.067Z,62.87
2018-05-11T08:42:06.323Z,61.23
2018-05-11T08:43:06.317Z,60.66
2018-05-11T08:44:06.320Z,60.08
2018-05-11T08:45:06.332Z,57.99
2018-05-11T08:46:06.335Z,57.25
2018-05-11T08:47:06.337Z,57.06
2018-05-11T08:48:06.348Z,57.54
2018-05-11T08:49:06.351Z,58.5
2018-05-11T08:50:06.348Z,59.47
2018-05-11T08:51:06.358Z,58.5
2018-05-11T08:52:06.362Z,57.15
2018-05-11T08:53:06.105Z,56.2
2018-05-11T08:54:06.104Z,55.55
2018-05-11T08:55:06.374Z,55.26
2018-05-11T08:56:06.385Z,54.58
2018-05-11T08:57:06.454Z,54.78
2018-05-11T08:58:06.400Z,54.36
2018-05-11T08:59:06.386Z,56.1
2018-05-11T09:00:06.389Z,57.45
2018-05-11T09:01:06.402Z,57.6
2018-05-11T09:02:06.402Z,57.92
2018-05-11T09:03:06.587Z,58.6
2018-05-11T09:04:06.432Z,58.28
2018-05-11T09:05:06.402Z,58.67
2018-05-11T09:06:06.154Z,59.53
2018-05-11T09:07:06.433Z,59.44
2018-05-11T09:08:06.425Z,60.3
2018-05-11T09:09:06.412Z,61.14
2018-05-11T09:10:06.176Z,61.71
2018-05-11T09:11:06.453Z,61.65
2018-05-11T09:12:06.434Z,58.09
2018-05-11T09:13:06.454Z,56.65
2018-05-11T09:14:06.441Z,57.13
2018-05-11T09:15:06.203Z,57
2018-05-11T09:16:06.457Z,57.42
2018-05-11T09:17:06.453Z,55.59
2018-05-11T09:18:06.193Z,54.24
2018-05-11T09:19:06.454Z,54.46
2018-05-11T09:20:06.467Z,53.78
2018-05-11T09:21:06.475Z,53.02
2018-05-11T09:22:06.662Z,52.34
2018-05-11T09:23:06.471Z,53.05
2018-05-11T09:24:06.262Z,52.95
2018-05-11T09:25:06.478Z,53.27
2018-05-11T09:26:06.227Z,52.66
2018-05-11T09:27:06.491Z,53.23
2018-05-11T09:28:06.504Z,54.87
2018-05-11T09:29:06.495Z,55.33
2018-05-11T09:30:06.502Z,56.16
2018-05-11T09:31:06.493Z,57.8
2018-05-11T09:32:06.235Z,58.25
2018-05-11T09:33:06.248Z,57.48
2018-05-11T09:34:06.505Z,58.64
2018-05-11T09:35:06.505Z,59.99
2018-05-11T09:36:06.262Z,60.08
2018-05-11T09:37:06.480Z,59.89
2018-05-11T09:38:06.514Z,57.68
2018-05-11T09:39:08.125Z,57.77
2018-05-11T09:40:06.275Z,58.83
2018-05-11T09:41:06.526Z,56.65
2018-05-11T09:42:06.532Z,58.73
2018-05-11T09:43:06.527Z,59.24
2018-05-11T09:44:06.537Z,57.29
2018-05-11T09:45:06.280Z,55.46
2018-05-11T09:46:06.278Z,56.81
2018-05-11T09:47:06.539Z,58.54
2018-05-11T09:48:06.290Z,57.65
2018-05-11T09:49:06.553Z,60.14
2018-05-11T09:50:06.560Z,58.99
2018-05-11T09:51:06.311Z,59.47
2018-05-11T09:52:06.559Z,59.06
2018-05-11T09:53:06.304Z,58.8
2018-05-11T09:54:06.560Z,59.47
2018-05-11T09:55:06.747Z,59.76
2018-05-11T09:56:06.581Z,59.09
2018-05-11T09:57:06.303Z,57.39
2018-05-11T09:58:06.347Z,58.61
2018-05-11T09:59:06.573Z,59.38
2018-05-11T10:00:06.326Z,59.19
2018-05-11T10:01:06.580Z,58.22
2018-05-11T10:02:06.333Z,59.69
2018-05-11T10:03:06.595Z,57.97
2018-05-11T10:04:06.653Z,57.97
2018-05-11T10:05:06.654Z,59.79
2018-05-11T10:06:06.588Z,61.3
2018-05-11T10:07:06.593Z,61.87
2018-05-11T10:08:06.587Z,60.63
2018-05-11T10:09:06.647Z,60.53
2018-05-11T10:10:06.601Z,59.86
2018-05-11T10:11:06.379Z,60.05
2018-05-11T10:12:06.338Z,59.66
2018-05-11T10:13:06.352Z,59.76
2018-05-11T10:14:06.345Z,57.75
2018-05-11T10:15:06.618Z,57.58
2018-05-11T10:16:06.609Z,56.62
2018-05-11T10:17:06.354Z,55.37
2018-05-11T10:18:06.615Z,57.1
2018-05-11T10:19:06.617Z,57.32
2018-05-11T10:20:06.618Z,57.13
2018-05-11T10:21:06.628Z,57.6
2018-05-11T10:22:06.634Z,56.84
2018-05-11T10:23:06.627Z,55.78
2018-05-11T10:53:20.338Z,53.23
2018-05-11T10:54:20.549Z,52.85
2018-05-11T10:55:20.541Z,53.33
2018-05-11T10:56:20.281Z,55.26
2018-05-11T10:57:20.286Z,53.23
2018-05-11T10:58:20.285Z,52.01
2018-05-11T10:59:20.558Z,52.59
2018-05-11T11:00:20.542Z,51.72
2018-05-11T11:01:20.750Z,51.14
2018-05-11T11:02:20.384Z,53.07
2018-05-11T11:03:20.550Z,52.59
2018-05-11T11:04:20.561Z,52.4
2018-05-11T11:05:20.570Z,52.08
2018-05-11T11:06:20.298Z,52.56
2018-05-11T11:07:20.304Z,52.83
2018-05-11T11:08:20.357Z,53.4
2018-05-11T11:09:20.557Z,53.21
2018-05-11T11:10:20.308Z,53.47
2018-05-11T11:11:20.559Z,54.82
2018-05-11T11:12:20.575Z,55.56
2018-05-11T11:13:20.314Z,56.33
2018-05-11T11:14:20.328Z,56.43
2018-05-11T11:15:20.322Z,56.62
2018-05-11T11:16:20.573Z,57.2
2018-05-11T11:17:20.322Z,56.71
2018-05-11T11:18:20.336Z,56.14
2018-05-11T11:19:20.578Z,56.33
2018-05-11T11:20:20.589Z,55.68
2018-05-11T11:21:20.610Z,55.01
2018-05-11T11:22:20.601Z,55.49
2018-05-11T11:23:20.651Z,55.04
2018-05-11T11:24:20.604Z,55.43
2018-05-11T11:25:20.601Z,53.5
2018-05-11T11:26:20.606Z,54.17
2018-05-11T11:27:20.601Z,54.27
2018-05-11T11:28:20.603Z,53.59
2018-05-11T11:29:20.622Z,54.72
2018-05-11T11:30:20.352Z,54.53
2018-05-11T11:31:20.380Z,54.72
2018-05-11T11:32:20.619Z,54.63
2018-05-11T11:33:20.368Z,54.08
2018-05-11T11:34:20.676Z,54.08
2018-05-11T11:35:20.362Z,53.21
2018-05-11T11:36:20.625Z,53.31
2018-05-11T11:37:20.378Z,54.43
2018-05-11T11:38:20.927Z,54.91
2018-05-11T11:39:20.390Z,54.91
2018-05-11T11:40:20.657Z,56.65
2018-05-11T11:41:20.640Z,56.07
2018-05-11T11:42:20.697Z,55.9
2018-05-11T11:43:20.645Z,54.75
2018-05-11T11:44:20.652Z,54.65
2018-05-11T11:45:20.655Z,55.35
2018-05-11T11:46:20.398Z,53.23
2018-05-11T11:47:20.706Z,52.11
2018-05-11T11:48:20.402Z,51.05
2018-05-11T11:49:20.406Z,50.47
2018-05-11T11:50:20.666Z,50.98
2018-05-11T11:51:20.661Z,50.85
2018-05-11T11:52:20.672Z,50.98
2018-05-11T11:53:20.421Z,53.74
2018-05-11T11:54:20.709Z,51.05
2018-05-11T11:55:20.419Z,51.05
2018-05-11T11:56:20.782Z,52.66
2018-05-11T11:57:20.685Z,54
2018-05-11T11:58:20.427Z,55.45
2018-05-11T11:59:20.712Z,52.27
2018-05-11T12:00:20.442Z,52.37
2018-05-11T12:01:20.449Z,51.62
2018-05-11T12:02:20.699Z,51.62
2018-05-11T12:03:20.706Z,54.13
2018-05-11T12:04:20.705Z,53.27
2018-05-11T12:05:20.712Z,52.49
2018-05-11T12:06:20.712Z,53.74
2018-05-11T12:07:20.713Z,52.4
2018-05-11T12:08:20.722Z,51.92
2018-05-11T12:09:20.745Z,56.05
2018-05-11T12:10:20.470Z,53.17
2018-05-11T12:11:20.736Z,53.33
2018-05-11T12:12:20.748Z,54.03
2018-05-11T12:13:20.732Z,52.69
2018-05-11T12:14:20.731Z,53.74
2018-05-11T12:15:20.739Z,54.71
2018-05-11T12:16:20.480Z,54.9
2018-05-11T12:17:20.984Z,53.45
2018-05-11T12:18:20.744Z,52.4
2018-05-11T12:19:20.757Z,50.95
2018-05-11T12:20:20.757Z,51.07
2018-05-11T12:21:20.502Z,51.36
2018-05-11T12:22:20.770Z,50.49
2018-05-11T12:23:20.760Z,50.62
2018-05-11T12:24:20.773Z,50.32
2018-05-11T12:25:20.775Z,49.55
2018-05-11T12:26:20.945Z,48.97
2018-05-11T12:27:20.524Z,50.84
2018-05-11T12:28:20.778Z,49.87
2018-05-11T12:29:20.787Z,49.65
2018-05-11T12:30:20.793Z,49.68
2018-05-11T12:31:20.803Z,49.19
2018-05-11T12:32:20.813Z,49.1
2018-05-11T12:33:20.799Z,49.39
2018-05-11T12:34:20.808Z,49.87
2018-05-11T12:35:20.546Z,50.54
2018-05-11T12:36:20.812Z,50.84
2018-05-11T12:37:20.815Z,50.52
2018-05-11T12:38:20.813Z,50.32
2018-05-11T12:39:20.810Z,50.04
2018-05-11T12:40:20.837Z,49.65
2018-05-11T12:41:20.828Z,49.65
2018-05-11T12:42:20.836Z,50.42
2018-05-11T12:43:20.839Z,50.04
2018-05-11T12:44:21.393Z,50.04
2018-05-11T12:45:20.842Z,50.04
2018-05-11T12:46:20.840Z,49.55
2018-05-11T12:47:20.860Z,50.04
2018-05-11T12:48:20.601Z,50.71
2018-05-11T12:49:20.596Z,50.23
2018-05-11T12:50:20.857Z,51.2
2018-05-11T12:51:20.607Z,50.23
2018-05-11T12:52:20.625Z,49.68
2018-05-11T12:53:20.948Z,50.64
2018-05-11T12:54:20.666Z,50.26
2018-05-11T12:55:20.908Z,49.87
2018-05-11T12:56:20.887Z,49.96
2018-05-11T12:57:20.627Z,49.48
2018-05-11T12:58:20.664Z,50.64
2018-05-11T12:59:20.993Z,51.41
2018-05-11T13:00:20.903Z,50.45
2018-05-11T13:01:20.670Z,50.16
2018-05-11T13:02:20.658Z,50.52
2018-05-11T13:03:20.670Z,51.77
2018-05-11T13:04:20.961Z,51.39
2018-05-11T13:05:20.657Z,51.97
2018-05-11T13:06:20.925Z,52.73
2018-05-11T13:07:21.058Z,51
2018-05-11T13:08:20.919Z,51.29
2018-05-11T13:09:24.938Z,50.52
2018-05-11T13:10:20.942Z,49.65
2018-05-11T13:11:20.940Z,51.1
2018-05-11T13:12:20.935Z,50.81
2018-05-11T13:13:20.946Z,50.52
2018-05-11T13:14:20.690Z,50.42
2018-05-11T13:15:20.946Z,50.42
2018-05-11T13:16:20.696Z,51.48
2018-05-11T13:17:20.961Z,50.62
2018-05-11T13:18:20.968Z,50.52
2018-05-11T13:19:20.707Z,50.9
2018-05-11T13:20:20.979Z,50.74
2018-05-11T13:21:20.976Z,49.68
2018-05-11T13:22:20.712Z,49.77
2018-05-11T13:23:20.717Z,49.51
2018-05-11T13:24:20.985Z,49.32
2018-05-11T13:25:21.000Z,48.64
2018-05-11T13:26:21.007Z,49.32
2018-05-11T13:27:20.995Z,50.57
2018-05-11T13:28:21.000Z,50.76
2018-05-11T13:29:20.751Z,51.22
2018-05-11T13:30:21.151Z,51.22
2018-05-11T13:31:21.010Z,50.45
2018-05-11T13:32:20.758Z,50.42